Saint Paul, Canada
Current Conditions -  °F | °C
As of 11:00 PM on Friday 19 Dec 2014 (Local Time) from CYOD Reporting Station
Overcast Overcast  
Wind Chill: 12°   Ceiling: 11000
Heat Index: 12°   Visibility: 15mi
Dew Point: 12°   Wind: 3mph
Humidity: 100%   Direction: 120°ESE
Pressure: 29.75"   Gusts: NA
Location:  53.98°N, 111.28°W
Report Text: CYOD 200600Z 12003KT 15SM OVC110 M11/M11 A2975 RMK AC5 SLP117
Loading
Personal Weather Stations






























Interactive Weather Map New forecast layout! Learn more

10-Day Weather Forecast

Advertisements
Track Severe Weather on mobile